sensor_id;sensor_type;location;lat;lon;timestamp;P1;durP1;ratioP1;P2;durP2;ratioP2
18290;SDS011;9271;48.590;8.866;2024-01-10T00:01:13;21.30;;;13.83;;
18290;SDS011;9271;48.590;8.866;2024-01-10T00:03:40;11.27;;;7.63;;
18290;SDS011;9271;48.590;8.866;2024-01-10T00:06:06;35.47;;;25.83;;
18290;SDS011;9271;48.590;8.866;2024-01-10T00:08:33;12.27;;;8.37;;
18290;SDS011;9271;48.590;8.866;2024-01-10T00:11:01;33.23;;;22.00;;
18290;SDS011;9271;48.590;8.866;2024-01-10T00:13:28;19.73;;;14.40;;
18290;SDS011;9271;48.590;8.866;2024-01-10T00:15:55;52.93;;;38.33;;
18290;SDS011;9271;48.590;8.866;2024-01-10T00:18:23;43.00;;;32.00;;
18290;SDS011;9271;48.590;8.866;2024-01-10T00:20:50;16.87;;;10.93;;
18290;SDS011;9271;48.590;8.866;2024-01-10T00:23:18;13.13;;;9.47;;
18290;SDS011;9271;48.590;8.866;2024-01-10T00:25:45;11.00;;;7.43;;
18290;SDS011;9271;48.590;8.866;2024-01-10T00:28:13;15.20;;;10.20;;
18290;SDS011;9271;48.590;8.866;2024-01-10T00:30:41;10.67;;;7.23;;
18290;SDS011;9271;48.590;8.866;2024-01-10T00:33:08;12.20;;;7.53;;
18290;SDS011;9271;48.590;8.866;2024-01-10T00:35:35;13.00;;;7.67;;
18290;SDS011;9271;48.590;8.866;2024-01-10T00:38:01;8.67;;;6.47;;
18290;SDS011;9271;48.590;8.866;2024-01-10T00:40:28;12.70;;;8.27;;
18290;SDS011;9271;48.590;8.866;2024-01-10T00:42:55;13.63;;;7.63;;
18290;SDS011;9271;48.590;8.866;2024-01-10T00:45:23;12.00;;;7.93;;
18290;SDS011;9271;48.590;8.866;2024-01-10T00:47:49;10.17;;;6.63;;
18290;SDS011;9271;48.590;8.866;2024-01-10T00:50:16;10.57;;;6.90;;
18290;SDS011;9271;48.590;8.866;2024-01-10T00:52:43;10.17;;;6.60;;
18290;SDS011;9271;48.590;8.866;2024-01-10T00:55:10;12.30;;;7.10;;
18290;SDS011;9271;48.590;8.866;2024-01-10T00:57:37;11.90;;;7.80;;
18290;SDS011;9271;48.590;8.866;2024-01-10T01:00:04;12.07;;;7.33;;
18290;SDS011;9271;48.590;8.866;2024-01-10T01:02:33;9.90;;;6.60;;
18290;SDS011;9271;48.590;8.866;2024-01-10T01:04:59;9.33;;;6.23;;
18290;SDS011;9271;48.590;8.866;2024-01-10T01:07:26;10.80;;;7.00;;
18290;SDS011;9271;48.590;8.866;2024-01-10T01:09:53;11.57;;;7.57;;
18290;SDS011;9271;48.590;8.866;2024-01-10T01:12:20;12.00;;;6.57;;
18290;SDS011;9271;48.590;8.866;2024-01-10T01:14:46;10.53;;;6.30;;
18290;SDS011;9271;48.590;8.866;2024-01-10T01:17:13;9.90;;;6.00;;
18290;SDS011;9271;48.590;8.866;2024-01-10T01:19:41;7.47;;;5.27;;
18290;SDS011;9271;48.590;8.866;2024-01-10T01:22:07;9.47;;;6.13;;
18290;SDS011;9271;48.590;8.866;2024-01-10T01:24:34;9.23;;;6.07;;
18290;SDS011;9271;48.590;8.866;2024-01-10T01:27:02;9.70;;;5.67;;
18290;SDS011;9271;48.590;8.866;2024-01-10T01:29:29;8.43;;;5.70;;
18290;SDS011;9271;48.590;8.866;2024-01-10T01:31:56;7.97;;;5.50;;
18290;SDS011;9271;48.590;8.866;2024-01-10T01:34:22;9.13;;;6.17;;
18290;SDS011;9271;48.590;8.866;2024-01-10T01:36:50;7.97;;;5.70;;
18290;SDS011;9271;48.590;8.866;2024-01-10T01:39:17;9.57;;;5.87;;
18290;SDS011;9271;48.590;8.866;2024-01-10T01:41:44;9.00;;;6.03;;
18290;SDS011;9271;48.590;8.866;2024-01-10T01:44:10;9.90;;;6.10;;
18290;SDS011;9271;48.590;8.866;2024-01-10T01:46:37;7.93;;;5.50;;
18290;SDS011;9271;48.590;8.866;2024-01-10T01:49:05;9.13;;;6.30;;
18290;SDS011;9271;48.590;8.866;2024-01-10T01:51:32;8.70;;;5.50;;
18290;SDS011;9271;48.590;8.866;2024-01-10T01:54:02;7.03;;;5.40;;
18290;SDS011;9271;48.590;8.866;2024-01-10T01:56:32;8.37;;;5.80;;
18290;SDS011;9271;48.590;8.866;2024-01-10T01:58:59;8.97;;;6.17;;
18290;SDS011;9271;48.590;8.866;2024-01-10T02:01:27;8.73;;;5.90;;
18290;SDS011;9271;48.590;8.866;2024-01-10T02:03:53;8.37;;;5.57;;
18290;SDS011;9271;48.590;8.866;2024-01-10T02:06:21;8.37;;;5.83;;
18290;SDS011;9271;48.590;8.866;2024-01-10T02:08:48;9.43;;;5.70;;
18290;SDS011;9271;48.590;8.866;2024-01-10T02:11:16;7.23;;;5.63;;
18290;SDS011;9271;48.590;8.866;2024-01-10T02:13:43;8.90;;;5.87;;
18290;SDS011;9271;48.590;8.866;2024-01-10T02:16:09;8.13;;;5.70;;
18290;SDS011;9271;48.590;8.866;2024-01-10T02:18:37;9.63;;;5.67;;
18290;SDS011;9271;48.590;8.866;2024-01-10T02:21:04;8.43;;;6.20;;
18290;SDS011;9271;48.590;8.866;2024-01-10T02:23:31;9.03;;;5.87;;
18290;SDS011;9271;48.590;8.866;2024-01-10T02:25:59;10.23;;;5.70;;
18290;SDS011;9271;48.590;8.866;2024-01-10T02:28:25;10.93;;;6.60;;
18290;SDS011;9271;48.590;8.866;2024-01-10T02:30:52;8.03;;;5.67;;
18290;SDS011;9271;48.590;8.866;2024-01-10T02:33:20;9.83;;;6.10;;
18290;SDS011;9271;48.590;8.866;2024-01-10T02:35:47;7.07;;;5.70;;
18290;SDS011;9271;48.590;8.866;2024-01-10T02:38:14;7.37;;;6.10;;
18290;SDS011;9271;48.590;8.866;2024-01-10T02:40:40;10.50;;;6.47;;
18290;SDS011;9271;48.590;8.866;2024-01-10T02:43:08;8.83;;;5.73;;
18290;SDS011;9271;48.590;8.866;2024-01-10T02:45:35;7.87;;;5.80;;
18290;SDS011;9271;48.590;8.866;2024-01-10T02:48:02;7.97;;;6.00;;
18290;SDS011;9271;48.590;8.866;2024-01-10T02:50:29;9.83;;;6.23;;
18290;SDS011;9271;48.590;8.866;2024-01-10T02:52:55;11.23;;;6.07;;
18290;SDS011;9271;48.590;8.866;2024-01-10T02:55:22;8.03;;;6.13;;
18290;SDS011;9271;48.590;8.866;2024-01-10T02:57:49;8.50;;;6.07;;
18290;SDS011;9271;48.590;8.866;2024-01-10T03:00:17;11.87;;;7.60;;
18290;SDS011;9271;48.590;8.866;2024-01-10T03:02:44;11.10;;;7.87;;
18290;SDS011;9271;48.590;8.866;2024-01-10T03:05:10;11.87;;;7.73;;
18290;SDS011;9271;48.590;8.866;2024-01-10T03:07:37;13.57;;;7.30;;
18290;SDS011;9271;48.590;8.866;2024-01-10T03:10:04;9.77;;;7.70;;
18290;SDS011;9271;48.590;8.866;2024-01-10T03:12:31;11.77;;;7.67;;
18290;SDS011;9271;48.590;8.866;2024-01-10T03:15:01;12.93;;;8.10;;
18290;SDS011;9271;48.590;8.866;2024-01-10T03:17:30;10.60;;;7.37;;
18290;SDS011;9271;48.590;8.866;2024-01-10T03:19:58;11.23;;;7.60;;
18290;SDS011;9271;48.590;8.866;2024-01-10T03:22:25;11.13;;;7.37;;
18290;SDS011;9271;48.590;8.866;2024-01-10T03:24:52;14.47;;;8.47;;
18290;SDS011;9271;48.590;8.866;2024-01-10T03:27:18;10.10;;;7.80;;
18290;SDS011;9271;48.590;8.866;2024-01-10T03:29:45;10.80;;;7.00;;
18290;SDS011;9271;48.590;8.866;2024-01-10T03:32:11;12.13;;;7.77;;
18290;SDS011;9271;48.590;8.866;2024-01-10T03:34:38;11.57;;;8.03;;
18290;SDS011;9271;48.590;8.866;2024-01-10T03:37:07;13.93;;;8.47;;
18290;SDS011;9271;48.590;8.866;2024-01-10T03:39:34;14.30;;;8.37;;
18290;SDS011;9271;48.590;8.866;2024-01-10T03:42:00;13.93;;;8.40;;
18290;SDS011;9271;48.590;8.866;2024-01-10T03:44:27;13.07;;;8.70;;
18290;SDS011;9271;48.590;8.866;2024-01-10T03:46:54;13.57;;;8.80;;
18290;SDS011;9271;48.590;8.866;2024-01-10T03:49:20;14.17;;;8.10;;
18290;SDS011;9271;48.590;8.866;2024-01-10T03:51:48;13.77;;;8.37;;
18290;SDS011;9271;48.590;8.866;2024-01-10T03:54:14;15.17;;;8.13;;
18290;SDS011;9271;48.590;8.866;2024-01-10T03:56:41;12.00;;;7.67;;
18290;SDS011;9271;48.590;8.866;2024-01-10T03:59:07;13.50;;;7.43;;
18290;SDS011;9271;48.590;8.866;2024-01-10T04:01:34;10.33;;;7.43;;
18290;SDS011;9271;48.590;8.866;2024-01-10T04:04:04;10.67;;;7.40;;
18290;SDS011;9271;48.590;8.866;2024-01-10T04:06:30;11.40;;;7.30;;
18290;SDS011;9271;48.590;8.866;2024-01-10T04:08:58;12.00;;;7.00;;
18290;SDS011;9271;48.590;8.866;2024-01-10T04:11:25;10.73;;;7.47;;
18290;SDS011;9271;48.590;8.866;2024-01-10T04:13:52;11.20;;;6.93;;
18290;SDS011;9271;48.590;8.866;2024-01-10T04:16:18;9.50;;;7.03;;
18290;SDS011;9271;48.590;8.866;2024-01-10T04:18:45;12.33;;;7.50;;
18290;SDS011;9271;48.590;8.866;2024-01-10T04:21:11;11.07;;;7.37;;
18290;SDS011;9271;48.590;8.866;2024-01-10T04:23:38;10.13;;;7.10;;
18290;SDS011;9271;48.590;8.866;2024-01-10T04:26:06;9.77;;;6.77;;
18290;SDS011;9271;48.590;8.866;2024-01-10T04:28:33;11.33;;;7.80;;
18290;SDS011;9271;48.590;8.866;2024-01-10T04:30:59;9.73;;;6.70;;
18290;SDS011;9271;48.590;8.866;2024-01-10T04:33:27;9.27;;;6.57;;
18290;SDS011;9271;48.590;8.866;2024-01-10T04:35:53;11.27;;;7.07;;
18290;SDS011;9271;48.590;8.866;2024-01-10T04:38:20;11.83;;;7.80;;
18290;SDS011;9271;48.590;8.866;2024-01-10T04:40:51;11.67;;;7.97;;
18290;SDS011;9271;48.590;8.866;2024-01-10T04:43:19;11.90;;;7.70;;
18290;SDS011;9271;48.590;8.866;2024-01-10T04:45:45;11.63;;;7.53;;
18290;SDS011;9271;48.590;8.866;2024-01-10T04:48:12;12.03;;;8.07;;
18290;SDS011;9271;48.590;8.866;2024-01-10T04:50:39;10.47;;;7.83;;
18290;SDS011;9271;48.590;8.866;2024-01-10T04:53:06;11.93;;;7.43;;
18290;SDS011;9271;48.590;8.866;2024-01-10T04:55:32;12.00;;;8.00;;
18290;SDS011;9271;48.590;8.866;2024-01-10T04:57:59;10.23;;;7.07;;
18290;SDS011;9271;48.590;8.866;2024-01-10T05:00:27;13.77;;;7.77;;
18290;SDS011;9271;48.590;8.866;2024-01-10T05:02:54;11.50;;;8.07;;
18290;SDS011;9271;48.590;8.866;2024-01-10T05:05:20;11.90;;;7.67;;
18290;SDS011;9271;48.590;8.866;2024-01-10T05:07:48;11.10;;;7.63;;
18290;SDS011;9271;48.590;8.866;2024-01-10T05:10:15;10.73;;;7.57;;
18290;SDS011;9271;48.590;8.866;2024-01-10T05:12:42;12.53;;;8.10;;
18290;SDS011;9271;48.590;8.866;2024-01-10T05:15:09;10.50;;;7.13;;
18290;SDS011;9271;48.590;8.866;2024-01-10T05:17:37;11.93;;;7.63;;
18290;SDS011;9271;48.590;8.866;2024-01-10T05:20:04;9.53;;;6.67;;
18290;SDS011;9271;48.590;8.866;2024-01-10T05:22:31;10.00;;;6.93;;
18290;SDS011;9271;48.590;8.866;2024-01-10T05:24:58;8.97;;;6.70;;
18290;SDS011;9271;48.590;8.866;2024-01-10T05:27:24;13.07;;;7.07;;
18290;SDS011;9271;48.590;8.866;2024-01-10T05:29:50;9.60;;;7.10;;
18290;SDS011;9271;48.590;8.866;2024-01-10T05:32:17;10.43;;;6.60;;
18290;SDS011;9271;48.590;8.866;2024-01-10T05:34:45;9.37;;;6.50;;
18290;SDS011;9271;48.590;8.866;2024-01-10T05:37:13;10.80;;;7.10;;
18290;SDS011;9271;48.590;8.866;2024-01-10T05:39:39;11.43;;;7.10;;
18290;SDS011;9271;48.590;8.866;2024-01-10T05:42:06;9.90;;;7.40;;
18290;SDS011;9271;48.590;8.866;2024-01-10T05:44:33;10.53;;;7.17;;
18290;SDS011;9271;48.590;8.866;2024-01-10T05:46:59;11.17;;;7.43;;
18290;SDS011;9271;48.590;8.866;2024-01-10T05:49:26;11.93;;;8.27;;
18290;SDS011;9271;48.590;8.866;2024-01-10T05:51:54;12.93;;;8.27;;
18290;SDS011;9271;48.590;8.866;2024-01-10T05:54:21;11.30;;;7.83;;
18290;SDS011;9271;48.590;8.866;2024-01-10T05:56:48;12.00;;;7.87;;
18290;SDS011;9271;48.590;8.866;2024-01-10T05:59:14;11.70;;;8.07;;
18290;SDS011;9271;48.590;8.866;2024-01-10T06:01:41;12.83;;;8.27;;
18290;SDS011;9271;48.590;8.866;2024-01-10T06:04:08;11.30;;;8.00;;
18290;SDS011;9271;48.590;8.866;2024-01-10T06:06:35;14.70;;;8.50;;
18290;SDS011;9271;48.590;8.866;2024-01-10T06:09:03;13.03;;;8.30;;
18290;SDS011;9271;48.590;8.866;2024-01-10T06:11:29;10.63;;;7.70;;
18290;SDS011;9271;48.590;8.866;2024-01-10T06:13:56;14.93;;;9.00;;
18290;SDS011;9271;48.590;8.866;2024-01-10T06:16:23;14.33;;;8.67;;
18290;SDS011;9271;48.590;8.866;2024-01-10T06:18:50;12.67;;;8.87;;
18290;SDS011;9271;48.590;8.866;2024-01-10T06:21:17;10.43;;;7.57;;
18290;SDS011;9271;48.590;8.866;2024-01-10T06:23:43;12.33;;;8.33;;
18290;SDS011;9271;48.590;8.866;2024-01-10T06:26:12;12.60;;;8.17;;
18290;SDS011;9271;48.590;8.866;2024-01-10T06:28:38;14.17;;;9.13;;
18290;SDS011;9271;48.590;8.866;2024-01-10T06:31:05;12.77;;;8.43;;
18290;SDS011;9271;48.590;8.866;2024-01-10T06:33:31;13.40;;;8.10;;
18290;SDS011;9271;48.590;8.866;2024-01-10T06:35:58;12.37;;;8.23;;
18290;SDS011;9271;48.590;8.866;2024-01-10T06:38:25;13.33;;;8.67;;
18290;SDS011;9271;48.590;8.866;2024-01-10T06:40:52;15.20;;;9.10;;
18290;SDS011;9271;48.590;8.866;2024-01-10T06:43:20;12.97;;;8.40;;
18290;SDS011;9271;48.590;8.866;2024-01-10T06:45:46;13.87;;;9.27;;
18290;SDS011;9271;48.590;8.866;2024-01-10T06:48:13;17.03;;;11.13;;
18290;SDS011;9271;48.590;8.866;2024-01-10T06:50:40;18.33;;;11.20;;
18290;SDS011;9271;48.590;8.866;2024-01-10T06:53:07;16.83;;;10.27;;
18290;SDS011;9271;48.590;8.866;2024-01-10T06:55:34;16.93;;;10.33;;
18290;SDS011;9271;48.590;8.866;2024-01-10T06:58:01;17.03;;;10.40;;
18290;SDS011;9271;48.590;8.866;2024-01-10T07:00:29;15.83;;;9.60;;
18290;SDS011;9271;48.590;8.866;2024-01-10T07:02:56;15.43;;;9.77;;
18290;SDS011;9271;48.590;8.866;2024-01-10T07:05:23;12.50;;;8.73;;
18290;SDS011;9271;48.590;8.866;2024-01-10T07:07:49;13.20;;;9.63;;
18290;SDS011;9271;48.590;8.866;2024-01-10T07:10:16;11.80;;;7.80;;
18290;SDS011;9271;48.590;8.866;2024-01-10T07:12:43;13.10;;;8.60;;
18290;SDS011;9271;48.590;8.866;2024-01-10T07:15:10;14.03;;;8.23;;
18290;SDS011;9271;48.590;8.866;2024-01-10T07:17:38;12.23;;;8.10;;
18290;SDS011;9271;48.590;8.866;2024-01-10T07:20:05;11.20;;;7.73;;
18290;SDS011;9271;48.590;8.866;2024-01-10T07:22:33;11.77;;;8.27;;
18290;SDS011;9271;48.590;8.866;2024-01-10T07:25:00;12.90;;;7.97;;
18290;SDS011;9271;48.590;8.866;2024-01-10T07:27:27;11.67;;;7.97;;
18290;SDS011;9271;48.590;8.866;2024-01-10T07:29:53;11.23;;;7.57;;
18290;SDS011;9271;48.590;8.866;2024-01-10T07:32:21;12.20;;;8.17;;
18290;SDS011;9271;48.590;8.866;2024-01-10T07:34:49;12.73;;;8.40;;
18290;SDS011;9271;48.590;8.866;2024-01-10T07:37:16;12.07;;;8.33;;
18290;SDS011;9271;48.590;8.866;2024-01-10T07:39:45;14.77;;;8.63;;
18290;SDS011;9271;48.590;8.866;2024-01-10T07:42:11;14.83;;;8.37;;
18290;SDS011;9271;48.590;8.866;2024-01-10T07:44:38;11.20;;;7.73;;
18290;SDS011;9271;48.590;8.866;2024-01-10T07:47:05;15.67;;;8.30;;
18290;SDS011;9271;48.590;8.866;2024-01-10T07:49:32;12.70;;;8.13;;
18290;SDS011;9271;48.590;8.866;2024-01-10T07:52:01;11.90;;;7.80;;
18290;SDS011;9271;48.590;8.866;2024-01-10T07:54:29;12.90;;;7.67;;
18290;SDS011;9271;48.590;8.866;2024-01-10T07:56:57;11.73;;;7.87;;
18290;SDS011;9271;48.590;8.866;2024-01-10T07:59:23;11.47;;;7.70;;
18290;SDS011;9271;48.590;8.866;2024-01-10T08:01:54;10.43;;;7.40;;
18290;SDS011;9271;48.590;8.866;2024-01-10T08:04:23;14.27;;;8.60;;
18290;SDS011;9271;48.590;8.866;2024-01-10T08:06:50;13.37;;;8.83;;
18290;SDS011;9271;48.590;8.866;2024-01-10T08:09:18;13.43;;;8.77;;
18290;SDS011;9271;48.590;8.866;2024-01-10T08:11:45;14.13;;;8.97;;
18290;SDS011;9271;48.590;8.866;2024-01-10T08:14:12;13.47;;;8.60;;
18290;SDS011;9271;48.590;8.866;2024-01-10T08:16:39;15.23;;;9.63;;
18290;SDS011;9271;48.590;8.866;2024-01-10T08:19:05;20.00;;;11.10;;
18290;SDS011;9271;48.590;8.866;2024-01-10T08:21:33;15.07;;;9.83;;
18290;SDS011;9271;48.590;8.866;2024-01-10T08:24:00;17.40;;;10.50;;
18290;SDS011;9271;48.590;8.866;2024-01-10T08:26:29;17.10;;;10.87;;
18290;SDS011;9271;48.590;8.866;2024-01-10T08:28:56;16.77;;;10.60;;
18290;SDS011;9271;48.590;8.866;2024-01-10T08:31:23;15.13;;;10.03;;
18290;SDS011;9271;48.590;8.866;2024-01-10T08:33:51;14.20;;;9.40;;
18290;SDS011;9271;48.590;8.866;2024-01-10T08:36:18;19.70;;;11.83;;
18290;SDS011;9271;48.590;8.866;2024-01-10T08:38:45;24.00;;;15.57;;
18290;SDS011;9271;48.590;8.866;2024-01-10T08:41:11;19.90;;;14.30;;
18290;SDS011;9271;48.590;8.866;2024-01-10T08:43:40;17.63;;;11.93;;
18290;SDS011;9271;48.590;8.866;2024-01-10T08:46:07;16.93;;;12.57;;
18290;SDS011;9271;48.590;8.866;2024-01-10T08:48:34;19.30;;;12.67;;
18290;SDS011;9271;48.590;8.866;2024-01-10T08:51:01;20.37;;;13.20;;
18290;SDS011;9271;48.590;8.866;2024-01-10T08:53:28;16.30;;;12.37;;
18290;SDS011;9271;48.590;8.866;2024-01-10T08:55:55;16.87;;;12.03;;
18290;SDS011;9271;48.590;8.866;2024-01-10T08:58:22;16.83;;;12.63;;
18290;SDS011;9271;48.590;8.866;2024-01-10T09:00:49;17.77;;;12.17;;
18290;SDS011;9271;48.590;8.866;2024-01-10T09:03:16;17.77;;;13.00;;
18290;SDS011;9271;48.590;8.866;2024-01-10T09:05:43;18.33;;;13.00;;
18290;SDS011;9271;48.590;8.866;2024-01-10T09:08:09;20.53;;;13.50;;
18290;SDS011;9271;48.590;8.866;2024-01-10T09:10:36;19.67;;;13.70;;
18290;SDS011;9271;48.590;8.866;2024-01-10T09:13:03;20.33;;;15.23;;
18290;SDS011;9271;48.590;8.866;2024-01-10T09:15:30;22.03;;;16.20;;
18290;SDS011;9271;48.590;8.866;2024-01-10T09:17:58;22.67;;;16.10;;
18290;SDS011;9271;48.590;8.866;2024-01-10T09:20:25;23.83;;;16.30;;
18290;SDS011;9271;48.590;8.866;2024-01-10T09:22:52;20.17;;;16.13;;
18290;SDS011;9271;48.590;8.866;2024-01-10T09:25:19;18.10;;;14.30;;
18290;SDS011;9271;48.590;8.866;2024-01-10T09:27:46;18.33;;;14.40;;
18290;SDS011;9271;48.590;8.866;2024-01-10T09:30:13;18.07;;;13.40;;
18290;SDS011;9271;48.590;8.866;2024-01-10T09:32:41;16.87;;;13.43;;
18290;SDS011;9271;48.590;8.866;2024-01-10T09:35:09;19.53;;;14.77;;
18290;SDS011;9271;48.590;8.866;2024-01-10T09:37:36;19.13;;;13.60;;
18290;SDS011;9271;48.590;8.866;2024-01-10T09:40:03;17.27;;;13.33;;
18290;SDS011;9271;48.590;8.866;2024-01-10T09:42:31;17.53;;;13.03;;
18290;SDS011;9271;48.590;8.866;2024-01-10T09:45:00;16.23;;;12.90;;
18290;SDS011;9271;48.590;8.866;2024-01-10T09:47:28;18.57;;;12.73;;
18290;SDS011;9271;48.590;8.866;2024-01-10T09:49:56;18.17;;;13.93;;
18290;SDS011;9271;48.590;8.866;2024-01-10T09:52:24;17.53;;;13.47;;
18290;SDS011;9271;48.590;8.866;2024-01-10T09:54:52;17.07;;;13.77;;
18290;SDS011;9271;48.590;8.866;2024-01-10T09:57:21;17.43;;;13.30;;
18290;SDS011;9271;48.590;8.866;2024-01-10T09:59:48;20.27;;;14.27;;
18290;SDS011;9271;48.590;8.866;2024-01-10T10:02:16;16.60;;;13.60;;
18290;SDS011;9271;48.590;8.866;2024-01-10T10:04:46;17.70;;;13.03;;
18290;SDS011;9271;48.590;8.866;2024-01-10T10:07:20;17.03;;;13.30;;
18290;SDS011;9271;48.590;8.866;2024-01-10T10:09:48;18.23;;;13.97;;
18290;SDS011;9271;48.590;8.866;2024-01-10T10:12:15;16.87;;;13.63;;
18290;SDS011;9271;48.590;8.866;2024-01-10T10:14:42;21.27;;;15.57;;
18290;SDS011;9271;48.590;8.866;2024-01-10T10:17:14;20.90;;;15.30;;
18290;SDS011;9271;48.590;8.866;2024-01-10T10:19:42;16.90;;;14.17;;
18290;SDS011;9271;48.590;8.866;2024-01-10T10:22:10;21.03;;;15.33;;
18290;SDS011;9271;48.590;8.866;2024-01-10T10:24:37;23.67;;;16.87;;
18290;SDS011;9271;48.590;8.866;2024-01-10T10:27:08;21.63;;;16.47;;
18290;SDS011;9271;48.590;8.866;2024-01-10T10:29:36;19.53;;;15.40;;
18290;SDS011;9271;48.590;8.866;2024-01-10T10:32:04;21.37;;;16.07;;
18290;SDS011;9271;48.590;8.866;2024-01-10T10:34:33;20.17;;;15.90;;
18290;SDS011;9271;48.590;8.866;2024-01-10T10:37:00;21.57;;;15.60;;
18290;SDS011;9271;48.590;8.866;2024-01-10T10:39:27;21.57;;;16.20;;
18290;SDS011;9271;48.590;8.866;2024-01-10T10:41:53;19.30;;;16.00;;
18290;SDS011;9271;48.590;8.866;2024-01-10T10:44:24;19.67;;;16.07;;
18290;SDS011;9271;48.590;8.866;2024-01-10T10:46:52;20.93;;;16.73;;
18290;SDS011;9271;48.590;8.866;2024-01-10T10:49:20;20.70;;;15.77;;
18290;SDS011;9271;48.590;8.866;2024-01-10T10:51:52;21.90;;;16.77;;
18290;SDS011;9271;48.590;8.866;2024-01-10T10:54:21;20.17;;;16.00;;
18290;SDS011;9271;48.590;8.866;2024-01-10T10:56:48;21.00;;;15.73;;
18290;SDS011;9271;48.590;8.866;2024-01-10T10:59:19;25.37;;;17.80;;
18290;SDS011;9271;48.590;8.866;2024-01-10T11:01:48;26.33;;;18.30;;
18290;SDS011;9271;48.590;8.866;2024-01-10T11:04:15;26.53;;;18.20;;
18290;SDS011;9271;48.590;8.866;2024-01-10T11:06:43;23.40;;;16.60;;
18290;SDS011;9271;48.590;8.866;2024-01-10T11:09:09;20.83;;;16.23;;
18290;SDS011;9271;48.590;8.866;2024-01-10T11:11:45;19.43;;;15.73;;
18290;SDS011;9271;48.590;8.866;2024-01-10T11:14:25;20.40;;;15.87;;
18290;SDS011;9271;48.590;8.866;2024-01-10T11:17:16;23.80;;;16.03;;
18290;SDS011;9271;48.590;8.866;2024-01-10T11:20:05;19.03;;;16.00;;
18290;SDS011;9271;48.590;8.866;2024-01-10T11:22:52;20.57;;;16.17;;
18290;SDS011;9271;48.590;8.866;2024-01-10T11:25:29;23.47;;;17.23;;
18290;SDS011;9271;48.590;8.866;2024-01-10T11:27:57;21.17;;;16.40;;
18290;SDS011;9271;48.590;8.866;2024-01-10T11:30:34;20.97;;;16.83;;
18290;SDS011;9271;48.590;8.866;2024-01-10T11:33:10;19.67;;;16.83;;
18290;SDS011;9271;48.590;8.866;2024-01-10T11:35:55;18.37;;;15.93;;
18290;SDS011;9271;48.590;8.866;2024-01-10T11:38:32;21.00;;;16.77;;
18290;SDS011;9271;48.590;8.866;2024-01-10T11:40:58;20.63;;;16.57;;
18290;SDS011;9271;48.590;8.866;2024-01-10T11:43:27;22.17;;;17.43;;
18290;SDS011;9271;48.590;8.866;2024-01-10T11:45:54;19.90;;;16.30;;
18290;SDS011;9271;48.590;8.866;2024-01-10T11:48:32;22.07;;;16.80;;
18290;SDS011;9271;48.590;8.866;2024-01-10T11:50:59;22.47;;;17.43;;
18290;SDS011;9271;48.590;8.866;2024-01-10T11:53:39;24.03;;;18.27;;
18290;SDS011;9271;48.590;8.866;2024-01-10T11:56:10;21.30;;;17.10;;
18290;SDS011;9271;48.590;8.866;2024-01-10T12:01:26;20.40;;;17.47;;
18290;SDS011;9271;48.590;8.866;2024-01-10T12:03:55;23.40;;;17.47;;
18290;SDS011;9271;48.590;8.866;2024-01-10T12:06:22;22.97;;;17.23;;
18290;SDS011;9271;48.590;8.866;2024-01-10T12:08:50;20.57;;;17.43;;
18290;SDS011;9271;48.590;8.866;2024-01-10T12:11:17;21.57;;;17.30;;
18290;SDS011;9271;48.590;8.866;2024-01-10T12:13:44;19.33;;;17.23;;
18290;SDS011;9271;48.590;8.866;2024-01-10T12:16:11;23.17;;;17.97;;
18290;SDS011;9271;48.590;8.866;2024-01-10T12:18:38;21.77;;;17.87;;
18290;SDS011;9271;48.590;8.866;2024-01-10T12:21:06;21.77;;;17.40;;
18290;SDS011;9271;48.590;8.866;2024-01-10T12:23:35;22.00;;;18.70;;
18290;SDS011;9271;48.590;8.866;2024-01-10T12:26:03;20.90;;;17.20;;
18290;SDS011;9271;48.590;8.866;2024-01-10T12:28:32;20.50;;;17.10;;
18290;SDS011;9271;48.590;8.866;2024-01-10T12:30:59;20.80;;;17.47;;
18290;SDS011;9271;48.590;8.866;2024-01-10T12:33:26;20.83;;;17.50;;
18290;SDS011;9271;48.590;8.866;2024-01-10T12:36:03;21.40;;;17.30;;
18290;SDS011;9271;48.590;8.866;2024-01-10T12:38:33;23.47;;;17.93;;
18290;SDS011;9271;48.590;8.866;2024-01-10T12:41:00;21.87;;;17.73;;
18290;SDS011;9271;48.590;8.866;2024-01-10T12:43:26;20.97;;;17.03;;
18290;SDS011;9271;48.590;8.866;2024-01-10T12:46:03;22.97;;;18.23;;
18290;SDS011;9271;48.590;8.866;2024-01-10T12:48:33;22.13;;;17.43;;
18290;SDS011;9271;48.590;8.866;2024-01-10T12:51:02;19.73;;;17.63;;
18290;SDS011;9271;48.590;8.866;2024-01-10T12:53:33;22.00;;;17.73;;
18290;SDS011;9271;48.590;8.866;2024-01-10T12:56:01;19.73;;;17.40;;
18290;SDS011;9271;48.590;8.866;2024-01-10T12:58:28;21.63;;;17.37;;
18290;SDS011;9271;48.590;8.866;2024-01-10T13:00:55;21.33;;;17.23;;
18290;SDS011;9271;48.590;8.866;2024-01-10T13:03:21;21.50;;;16.80;;
18290;SDS011;9271;48.590;8.866;2024-01-10T13:05:48;21.50;;;17.53;;
18290;SDS011;9271;48.590;8.866;2024-01-10T13:08:15;27.40;;;24.50;;
18290;SDS011;9271;48.590;8.866;2024-01-10T13:10:43;20.63;;;17.97;;
18290;SDS011;9271;48.590;8.866;2024-01-10T13:13:10;19.67;;;16.77;;
18290;SDS011;9271;48.590;8.866;2024-01-10T13:15:37;20.53;;;17.40;;
18290;SDS011;9271;48.590;8.866;2024-01-10T13:18:04;19.50;;;17.17;;
18290;SDS011;9271;48.590;8.866;2024-01-10T13:20:31;18.70;;;16.60;;
18290;SDS011;9271;48.590;8.866;2024-01-10T13:22:58;21.27;;;17.17;;
18290;SDS011;9271;48.590;8.866;2024-01-10T13:25:24;20.43;;;17.43;;
18290;SDS011;9271;48.590;8.866;2024-01-10T13:27:52;20.67;;;16.60;;
18290;SDS011;9271;48.590;8.866;2024-01-10T13:30:19;23.07;;;17.70;;
18290;SDS011;9271;48.590;8.866;2024-01-10T13:32:46;19.73;;;16.73;;
18290;SDS011;9271;48.590;8.866;2024-01-10T13:35:12;20.60;;;17.27;;
18290;SDS011;9271;48.590;8.866;2024-01-10T13:37:41;21.10;;;17.63;;
18290;SDS011;9271;48.590;8.866;2024-01-10T13:40:08;21.07;;;16.90;;
18290;SDS011;9271;48.590;8.866;2024-01-10T13:42:37;20.43;;;18.17;;
18290;SDS011;9271;48.590;8.866;2024-01-10T13:45:06;24.37;;;17.73;;
18290;SDS011;9271;48.590;8.866;2024-01-10T13:47:36;23.30;;;17.33;;
18290;SDS011;9271;48.590;8.866;2024-01-10T13:50:03;21.63;;;16.40;;
18290;SDS011;9271;48.590;8.866;2024-01-10T13:52:30;19.57;;;16.60;;
18290;SDS011;9271;48.590;8.866;2024-01-10T13:54:57;20.03;;;16.30;;
18290;SDS011;9271;48.590;8.866;2024-01-10T13:57:24;18.67;;;15.73;;
18290;SDS011;9271;48.590;8.866;2024-01-10T13:59:51;18.60;;;15.43;;
18290;SDS011;9271;48.590;8.866;2024-01-10T14:02:21;22.50;;;16.57;;
18290;SDS011;9271;48.590;8.866;2024-01-10T14:04:48;21.20;;;17.50;;
18290;SDS011;9271;48.590;8.866;2024-01-10T14:07:14;20.70;;;16.20;;
18290;SDS011;9271;48.590;8.866;2024-01-10T14:09:41;106.43;;;66.87;;
18290;SDS011;9271;48.590;8.866;2024-01-10T14:12:08;28.13;;;20.83;;
18290;SDS011;9271;48.590;8.866;2024-01-10T14:14:35;28.60;;;22.17;;
18290;SDS011;9271;48.590;8.866;2024-01-10T14:17:02;32.07;;;26.07;;
18290;SDS011;9271;48.590;8.866;2024-01-10T14:19:31;21.57;;;17.63;;
18290;SDS011;9271;48.590;8.866;2024-01-10T14:21:58;23.13;;;17.80;;
18290;SDS011;9271;48.590;8.866;2024-01-10T14:24:24;23.07;;;17.87;;
18290;SDS011;9271;48.590;8.866;2024-01-10T14:26:51;21.93;;;17.27;;
18290;SDS011;9271;48.590;8.866;2024-01-10T14:29:19;20.67;;;16.27;;
18290;SDS011;9271;48.590;8.866;2024-01-10T14:31:47;21.70;;;16.60;;
18290;SDS011;9271;48.590;8.866;2024-01-10T14:34:14;22.37;;;16.60;;
18290;SDS011;9271;48.590;8.866;2024-01-10T14:36:42;22.70;;;17.60;;
18290;SDS011;9271;48.590;8.866;2024-01-10T14:39:09;29.47;;;23.53;;
18290;SDS011;9271;48.590;8.866;2024-01-10T14:41:37;20.33;;;16.60;;
18290;SDS011;9271;48.590;8.866;2024-01-10T14:44:04;20.97;;;16.13;;
18290;SDS011;9271;48.590;8.866;2024-01-10T14:46:31;22.70;;;16.57;;
18290;SDS011;9271;48.590;8.866;2024-01-10T14:48:57;22.10;;;16.30;;